Newburgh, Indiana
Current Conditions -  °F | °C
As of 3:54 PM on Thursday 27 Nov 2014 (Local Time) from KEVV Reporting Station
Overcast Overcast  
Wind Chill: 22°   Ceiling: 2800
Heat Index: 30°   Visibility: 10mi
Dew Point: 21°   Wind: 8mph
Humidity: 69%   Direction: 300°WNW
Pressure: 30.46"   Gusts: NA
Location:  37.95°N, 87.4°W
Report Text: KEVV 272154Z 30007KT 10SM OVC028 M01/M06 A3046 RMK AO2 SLP319 T10111061
Loading
Personal Weather Stations






























Interactive Weather Map New forecast layout! Learn more

10-Day Weather Forecast

Advertisements
Track Severe Weather on mobile